CPC9 weather

Huntsville (Memorial District Hospital) Heliport
Huntsville, Ontario, Canada

Public forecast

Using degrees Celsius for public forecast. Weather courtesy of forecast.io.

METAR (pilot weather report)

Closest report is Muskoka Airport, 22.3 nm (41.4 km) S. Retrieved 2019/07/20 02:42 UTC (2 minutes ago):

CYQA 200242Z AUTO 21003KT 5SM BR CLR 23/22 A2982 RMK SLP096 DENSITY ALT 2100FT

TAF (pilot weather forecast)

Forecast is more than 6 hours old.

Closest forecast is Muskoka Airport, 22.3 nm (41.4 km) S. Retrieved 2019/07/19 20:00 UTC (7 hours ago):

TAF CYQA 191938Z 1920/2002 24008KT P6SM SCT020 BKN030 TEMPO 1920/1923 P6SM -SHRA BKN020 FM192300 26010KT P6SM OVC012 TEMPO 1923/2002 3SM -DZ BR OVC006 RMK FCST BASED ON AUTO OBS. NXT FCST WILL BE ISSUED AT 201145Z